Avant, OK

12:16 AM CDT on August 20, 2014 (GMT -0500)
Claremore Regional | Change Station
CLOSE
Current Station
Airport
Location: Claremore,
Elevation: 725 ft
Nearby Weather Stations

Elev 725 ft 36.29 °N, 95.48 °W | Updated 21 minutes ago

Clear
Clear
77 °F
Feels Like 77 °F
N
7
Wind Variable Wind from South

Today
High -- | Low -- °F
--% Chance of Precip.
Yesterday
High -- | Low -- °F
Precip. -- in
6:45 AM 8:08 PM
Waning Crescent, 24% visible
Pressure 29.91 in
Visibility 10.0 miles
Clouds Clear
Dew Point 72 °F
Humidity 83%
Rainfall 0.00 in
Snow Depth Not available.
UV 0 out of 12
Pollen 9.20 out of 12
Ozone Good
PM2.5 Good
Flu Activity Not available.
METAR KGCM 200455Z AUTO 19006KT 10SM CLR 25/22 A2991 RMK AO2

More Conditions Fewer Conditions

Pressure 29.91 in
Visibility 10.0 miles
Clouds Clear
Dew Point 72 °F
Humidity 83%
Rainfall 0.00 in
Snow Depth Not available.
UV 0 out of 12
Pollen 9.20 out of 12
Ozone Good
PM2.5 Good
Flu Activity Not available.
METAR KGCM 200455Z AUTO 19006KT 10SM CLR 25/22 A2991 RMK AO2

More Conditions Fewer Conditions

10-Day Weather Forecast

Almanac

Astronomy

Aug. 20, 2014 Rise Set
Actual Time 6:45 AM CDT 8:08 PM CDT
Civil Twilight 6:18 AM CDT 8:35 PM CDT
Nautical Twilight 5:46 AM CDT 9:07 PM CDT
Astronomical Twilight 5:12 AM CDT 9:41 PM CDT
Moon 2:29 AM CDT 4:51 PM CDT
Length of Visible Light 14h 16m
Length of Day
13h 22m
Tomorrow will be 2m 6s shorter.
Waning Crescent, 24% of the Moon is Illuminated
Today
Waning Crescent
Aug 25
New
Sep 2
First Quarter
Sep 8
Full
Sep 15
Last Quarter

Today's Extremes

State Highs State Lows

Community

WunderPhotos

Upload Photos

1,745,592 photos uploaded!

Nearby

Air Quality

  Air Quality AQ Index Pollutant
Yesterday Good
OZONE
Yesterday Good
PM2.5
Current Good
PM2.5
Current Good
OZONE
Tuesday Good
OZONE
Tuesday Good
PM2.5
Wednesday Good
OZONE
Wednesday Good
PM2.5
Thursday Good
OZONE
Thursday Good
PM2.5
Friday Good
OZONE
Friday Good
PM2.5
Saturday Good
OZONE
Saturday Good
PM2.5
Sunday Good
OZONE
Sunday Good
PM2.5

Snow Depth

Station Depth Elevation
No new snow has been reported.

Earthquake Activity

City Distance Mag. Time & Date
Medford, Oklahoma 96 miles 2.5 7:09 AM CDT
2014-08-15
Langston, Oklahoma 74 miles 2.9 9:49 PM CDT
2014-08-14
Perry, Oklahoma 60 miles 2.7 6:20 PM CDT
2014-08-14
Perry, Oklahoma 59 miles 2.8 2:04 PM CDT
2014-08-14
Minimum magnitude displayed is 2.5.

Coastal Water Temperatures

Place Temperature
No Stations Reporting

Nearby Weather Stations